createdAt,value
2017-12-02T00:00:24.437Z,0.72
2017-12-02T00:00:59.733Z,0.40
2017-12-02T00:01:35.144Z,0.96
2017-12-02T00:02:10.415Z,1.28
2017-12-02T00:02:45.851Z,1.68
2017-12-02T00:03:21.363Z,1.12
2017-12-02T00:03:56.645Z,0.48
2017-12-02T00:04:32.065Z,0.48
2017-12-02T00:05:07.598Z,0.32
2017-12-02T00:05:42.920Z,1.12
2017-12-02T00:06:18.018Z,0.32
2017-12-02T00:06:53.202Z,1.04
2017-12-02T00:07:28.848Z,0.00
2017-12-02T00:08:04.325Z,0.16
2017-12-02T00:08:39.839Z,0.40
2017-12-02T00:09:15.155Z,0.56
2017-12-02T00:09:50.535Z,0.24
2017-12-02T00:10:25.542Z,0.16
2017-12-02T00:11:00.943Z,0.32
2017-12-02T00:11:36.354Z,0.40
2017-12-02T00:12:11.663Z,0.08
2017-12-02T00:12:46.881Z,0.00
2017-12-02T00:13:21.985Z,0.00
2017-12-02T00:13:57.376Z,0.00
2017-12-02T00:14:32.886Z,0.00
2017-12-02T00:15:08.269Z,0.00
2017-12-02T00:15:43.582Z,0.00
2017-12-02T00:16:19.300Z,0.08
2017-12-02T00:16:54.788Z,0.16
2017-12-02T00:17:29.901Z,0.08
2017-12-02T00:18:05.326Z,0.00
2017-12-02T00:18:40.527Z,0.00
2017-12-02T00:19:15.936Z,0.56
2017-12-02T00:19:51.331Z,0.16
2017-12-02T00:20:26.544Z,0.00
2017-12-02T00:21:01.637Z,0.00
2017-12-02T00:21:37.156Z,0.00
2017-12-02T00:22:12.679Z,0.00
2017-12-02T00:22:47.984Z,0.24
2017-12-02T00:23:23.590Z,0.00
2017-12-02T00:23:58.877Z,0.00
2017-12-02T00:24:34.299Z,0.00
2017-12-02T00:25:09.482Z,0.00
2017-12-02T00:25:44.690Z,0.00
2017-12-02T00:26:20.301Z,0.00
2017-12-02T00:26:55.395Z,0.00
2017-12-02T00:27:30.510Z,0.00
2017-12-02T00:28:05.711Z,0.00
2017-12-02T00:28:40.925Z,0.56
2017-12-02T00:29:16.328Z,0.00
2017-12-02T00:29:51.613Z,0.00
2017-12-02T00:30:27.113Z,0.32
2017-12-02T00:31:02.389Z,0.08
2017-12-02T00:31:37.813Z,0.00
2017-12-02T00:32:13.213Z,0.00
2017-12-02T00:32:48.521Z,0.00
2017-12-02T00:33:23.830Z,0.00
2017-12-02T00:33:59.222Z,0.00
2017-12-02T00:34:34.834Z,0.08
2017-12-02T00:35:10.620Z,0.00
2017-12-02T00:35:45.728Z,0.00
2017-12-02T00:36:20.935Z,0.00
2017-12-02T00:36:56.411Z,0.08
2017-12-02T00:37:31.631Z,0.16
2017-12-02T00:38:06.741Z,0.24
2017-12-02T00:38:42.379Z,0.08
2017-12-02T00:39:17.782Z,0.00
2017-12-02T00:39:52.867Z,0.00
2017-12-02T00:40:28.377Z,0.00
2017-12-02T00:41:03.567Z,0.00
2017-12-02T00:41:38.780Z,0.00
2017-12-02T00:42:13.979Z,0.00
2017-12-02T00:42:49.173Z,0.00
2017-12-02T00:43:24.500Z,0.00
2017-12-02T00:43:59.700Z,0.16
2017-12-02T00:44:35.126Z,0.00
2017-12-02T00:45:10.899Z,0.08
2017-12-02T00:45:46.010Z,0.00
2017-12-02T00:46:21.321Z,0.00
2017-12-02T00:46:57.001Z,0.48
2017-12-02T00:47:32.202Z,1.28
2017-12-02T00:48:07.616Z,0.56
2017-12-02T00:48:43.219Z,1.04
2017-12-02T00:49:18.525Z,0.32
2017-12-02T00:49:54.211Z,0.00
2017-12-02T00:50:29.228Z,0.08
2017-12-02T00:51:04.411Z,0.32
2017-12-02T00:51:39.418Z,0.08
2017-12-02T00:52:14.724Z,0.48
2017-12-02T00:52:50.211Z,0.32
2017-12-02T00:53:25.640Z,0.00
2017-12-02T00:54:01.124Z,0.72
2017-12-02T00:54:36.452Z,0.72
2017-12-02T00:55:11.678Z,0.64
2017-12-02T00:55:47.156Z,0.72
2017-12-02T00:56:22.857Z,1.84
2017-12-02T00:56:58.340Z,0.08
2017-12-02T00:57:34.043Z,0.16
2017-12-02T00:58:09.252Z,0.88
2017-12-02T00:58:44.952Z,0.56
2017-12-02T00:59:20.369Z,1.36
2017-12-02T00:59:55.650Z,0.00
2017-12-02T01:00:30.964Z,0.00
2017-12-02T01:01:06.162Z,0.00
2017-12-02T01:01:41.368Z,0.00
2017-12-02T01:02:16.733Z,0.00
2017-12-02T01:02:52.168Z,0.56
2017-12-02T01:03:27.618Z,0.32
2017-12-02T01:04:03.222Z,0.16
2017-12-02T01:04:38.622Z,0.08
2017-12-02T01:05:14.031Z,0.00
2017-12-02T01:05:49.329Z,0.00
2017-12-02T01:06:25.034Z,0.00
2017-12-02T01:07:00.310Z,0.00
2017-12-02T01:07:36.020Z,0.00
2017-12-02T01:08:11.451Z,0.00
2017-12-02T01:08:46.735Z,0.00
2017-12-02T01:09:22.041Z,0.00
2017-12-02T01:09:57.325Z,0.00
2017-12-02T01:10:32.828Z,0.00
2017-12-02T01:11:08.113Z,0.00
2017-12-02T01:11:43.423Z,0.56
2017-12-02T01:12:18.801Z,1.36
2017-12-02T01:12:53.907Z,0.00
2017-12-02T01:13:29.444Z,0.16
2017-12-02T01:14:05.036Z,0.00
2017-12-02T01:14:40.552Z,0.00
2017-12-02T01:15:15.773Z,0.08
2017-12-02T01:15:50.954Z,0.00
2017-12-02T01:16:26.155Z,0.16
2017-12-02T01:17:01.866Z,0.00
2017-12-02T01:17:37.482Z,0.00
2017-12-02T01:18:13.100Z,0.00
2017-12-02T01:18:48.232Z,0.00
2017-12-02T01:19:23.479Z,0.00
2017-12-02T01:19:58.556Z,0.00
2017-12-02T01:20:33.858Z,0.00
2017-12-02T01:21:09.068Z,0.00
2017-12-02T01:21:44.467Z,0.00
2017-12-02T01:22:19.871Z,0.00
2017-12-02T01:22:55.257Z,0.00
2017-12-02T01:23:30.589Z,0.00
2017-12-02T01:24:06.179Z,0.00
2017-12-02T01:24:41.787Z,0.00
2017-12-02T01:25:16.994Z,0.00
2017-12-02T01:25:52.382Z,0.00
2017-12-02T01:26:27.490Z,0.00
2017-12-02T01:27:03.067Z,0.00
2017-12-02T01:27:38.483Z,0.00
2017-12-02T01:28:13.698Z,0.00
2017-12-02T01:28:48.966Z,0.00
2017-12-02T01:29:24.605Z,0.00
2017-12-02T01:29:59.993Z,0.00
2017-12-02T01:30:35.299Z,0.00
2017-12-02T01:31:10.606Z,0.00
2017-12-02T01:31:45.794Z,0.08
2017-12-02T01:32:21.221Z,0.00
2017-12-02T01:32:56.591Z,0.00
2017-12-02T01:33:31.822Z,0.00
2017-12-02T01:34:07.111Z,0.00
2017-12-02T01:34:42.420Z,0.64
2017-12-02T01:35:18.048Z,0.00
2017-12-02T01:35:53.719Z,0.00
2017-12-02T01:36:29.046Z,0.00
2017-12-02T01:37:04.529Z,0.64
2017-12-02T01:37:40.225Z,0.00
2017-12-02T01:38:15.592Z,0.00
2017-12-02T01:38:50.790Z,0.00
2017-12-02T01:39:25.991Z,0.00
2017-12-02T01:40:01.486Z,0.00
2017-12-02T01:40:36.795Z,0.00
2017-12-02T01:41:12.007Z,0.24
2017-12-02T01:41:47.089Z,0.00
2017-12-02T01:42:22.622Z,0.16
2017-12-02T01:42:58.109Z,1.68
2017-12-02T01:43:33.651Z,1.28
2017-12-02T01:44:09.231Z,0.24
2017-12-02T01:44:44.545Z,0.16
2017-12-02T01:45:19.955Z,0.40
2017-12-02T01:45:55.429Z,1.68
2017-12-02T01:46:30.642Z,0.56
2017-12-02T01:47:06.129Z,0.16
2017-12-02T01:47:41.532Z,0.48
2017-12-02T01:48:16.648Z,0.00
2017-12-02T01:48:51.856Z,1.68
2017-12-02T01:49:27.276Z,0.64
2017-12-02T01:50:02.556Z,1.12
2017-12-02T01:50:37.771Z,0.00
2017-12-02T01:51:13.369Z,0.00
2017-12-02T01:51:49.054Z,0.40
2017-12-02T01:52:24.361Z,0.00
2017-12-02T01:52:59.648Z,0.00
2017-12-02T01:53:35.245Z,0.16
2017-12-02T01:54:10.772Z,0.00
2017-12-02T01:54:46.586Z,0.00
2017-12-02T01:55:22.183Z,0.00
2017-12-02T01:55:57.464Z,0.00
2017-12-02T01:56:32.770Z,0.16
2017-12-02T01:57:08.053Z,0.40
2017-12-02T01:57:43.456Z,0.00
2017-12-02T01:58:18.967Z,0.56
2017-12-02T01:58:54.559Z,0.24
2017-12-02T01:59:29.988Z,0.00
2017-12-02T02:00:04.976Z,0.32
2017-12-02T02:00:40.484Z,0.16
2017-12-02T02:01:15.809Z,0.00
2017-12-02T02:01:51.296Z,0.40
2017-12-02T02:02:26.520Z,1.36
2017-12-02T02:03:02.005Z,1.68
2017-12-02T02:03:37.012Z,0.24
2017-12-02T02:04:12.350Z,0.00
2017-12-02T02:04:47.535Z,0.00
2017-12-02T02:05:23.156Z,0.40
2017-12-02T02:05:58.333Z,0.72
2017-12-02T02:06:33.847Z,0.00
2017-12-02T02:07:08.946Z,0.00
2017-12-02T02:07:44.473Z,0.00
2017-12-02T02:08:20.313Z,1.28
2017-12-02T02:08:55.418Z,0.24
2017-12-02T02:09:30.844Z,0.08
2017-12-02T02:10:06.127Z,0.00
2017-12-02T02:10:41.535Z,0.00
2017-12-02T02:11:17.054Z,0.00
2017-12-02T02:11:52.458Z,0.00
2017-12-02T02:12:27.581Z,0.00
2017-12-02T02:13:03.075Z,0.00
2017-12-02T02:13:38.685Z,0.08
2017-12-02T02:14:14.224Z,0.00
2017-12-02T02:14:49.564Z,0.00
2017-12-02T02:15:24.829Z,0.00
2017-12-02T02:16:00.125Z,0.00
2017-12-02T02:16:35.636Z,0.00
2017-12-02T02:17:11.255Z,0.00
2017-12-02T02:17:46.463Z,0.00
2017-12-02T02:18:21.668Z,0.00
2017-12-02T02:18:57.086Z,0.00
2017-12-02T02:19:32.635Z,0.00
2017-12-02T02:20:07.721Z,0.00
2017-12-02T02:20:42.935Z,0.00
2017-12-02T02:21:18.349Z,0.00
2017-12-02T02:21:53.639Z,0.00
2017-12-02T02:22:29.055Z,0.00
2017-12-02T02:23:04.151Z,0.00
2017-12-02T02:23:39.584Z,0.00
2017-12-02T02:24:15.112Z,0.00
2017-12-02T02:24:50.208Z,0.00
2017-12-02T02:25:25.914Z,0.00
2017-12-02T02:26:01.206Z,0.00
2017-12-02T02:26:36.410Z,0.00
2017-12-02T02:27:11.732Z,0.00
2017-12-02T02:27:47.019Z,0.00
2017-12-02T02:28:22.231Z,0.00
2017-12-02T02:28:57.434Z,0.00
2017-12-02T02:29:32.865Z,0.00
2017-12-02T02:30:08.058Z,0.00
2017-12-02T02:30:43.264Z,0.00
2017-12-02T02:31:18.476Z,0.00
2017-12-02T02:31:53.962Z,0.00
2017-12-02T02:32:29.270Z,0.00
2017-12-02T02:33:04.462Z,0.00
2017-12-02T02:33:40.081Z,0.00
2017-12-02T02:34:15.525Z,0.00
2017-12-02T02:34:50.808Z,0.00
2017-12-02T02:35:26.137Z,0.00
2017-12-02T02:36:01.716Z,0.00
2017-12-02T02:36:36.929Z,0.00
2017-12-02T02:37:12.135Z,0.08
2017-12-02T02:37:47.428Z,0.40
2017-12-02T02:38:22.758Z,0.00
2017-12-02T02:38:58.040Z,0.00
2017-12-02T02:39:33.274Z,0.00
2017-12-02T02:40:08.567Z,0.00
2017-12-02T02:40:44.094Z,0.00
2017-12-02T02:41:19.722Z,0.00
2017-12-02T02:41:55.010Z,0.00
2017-12-02T02:42:30.232Z,0.00
2017-12-02T02:43:05.622Z,0.00
2017-12-02T02:43:41.140Z,0.00
2017-12-02T02:44:16.674Z,0.00
2017-12-02T02:44:52.105Z,0.00
2017-12-02T02:45:27.282Z,0.00
2017-12-02T02:46:02.559Z,0.00
2017-12-02T02:46:38.102Z,0.00
2017-12-02T02:47:13.297Z,0.00
2017-12-02T02:47:48.491Z,0.00
2017-12-02T02:48:23.596Z,0.00
2017-12-02T02:48:59.097Z,0.08
2017-12-02T02:49:34.529Z,0.08
2017-12-02T02:50:09.812Z,0.16
2017-12-02T02:50:45.128Z,0.32
2017-12-02T02:51:20.443Z,0.00
2017-12-02T02:51:55.837Z,0.00
2017-12-02T02:52:31.346Z,0.00
2017-12-02T02:53:06.729Z,0.00
2017-12-02T02:53:42.241Z,0.00
2017-12-02T02:54:18.050Z,0.08
2017-12-02T02:54:53.472Z,0.08
2017-12-02T02:55:28.968Z,0.00
2017-12-02T02:56:04.266Z,0.32
2017-12-02T02:56:39.664Z,0.96
2017-12-02T02:57:15.084Z,1.84
2017-12-02T02:57:50.368Z,1.12
2017-12-02T02:58:25.685Z,0.40
2017-12-02T02:59:00.973Z,1.28
2017-12-02T02:59:36.317Z,1.04
2017-12-02T03:00:11.630Z,1.04
2017-12-02T03:00:46.616Z,0.08
2017-12-02T03:01:21.819Z,0.00
2017-12-02T03:01:56.999Z,1.04
2017-12-02T03:02:32.309Z,1.36
2017-12-02T03:03:07.687Z,0.24
2017-12-02T03:03:43.092Z,0.00
2017-12-02T03:04:18.102Z,0.00
2017-12-02T03:04:53.417Z,0.88
2017-12-02T03:05:28.630Z,1.36
2017-12-02T03:06:04.118Z,2.40
2017-12-02T03:06:39.630Z,1.28
2017-12-02T03:07:14.851Z,0.96
2017-12-02T03:07:50.438Z,2.16
2017-12-02T03:08:25.747Z,1.28
2017-12-02T03:09:00.929Z,1.84
2017-12-02T03:09:36.185Z,2.00
2017-12-02T03:10:11.299Z,0.56
2017-12-02T03:10:46.687Z,0.56
2017-12-02T03:11:22.001Z,0.16
2017-12-02T03:11:57.381Z,0.56
2017-12-02T03:12:32.992Z,0.24
2017-12-02T03:13:08.479Z,0.32
2017-12-02T03:13:43.588Z,0.32
2017-12-02T03:14:18.902Z,1.12
2017-12-02T03:14:54.726Z,0.16
2017-12-02T03:15:30.336Z,0.00
2017-12-02T03:16:05.515Z,0.00
2017-12-02T03:16:40.824Z,0.00
2017-12-02T03:17:16.242Z,0.00
2017-12-02T03:17:51.529Z,0.00
2017-12-02T03:18:26.845Z,0.00
2017-12-02T03:19:02.132Z,0.00
2017-12-02T03:19:37.441Z,0.00
2017-12-02T03:20:12.679Z,0.00
2017-12-02T03:20:47.853Z,0.00
2017-12-02T03:21:23.092Z,0.00
2017-12-02T03:21:58.454Z,0.00
2017-12-02T03:22:33.761Z,0.00
2017-12-02T03:23:09.046Z,0.00
2017-12-02T03:23:44.272Z,0.00
2017-12-02T03:24:19.466Z,0.00
2017-12-02T03:24:54.879Z,0.00
2017-12-02T03:25:30.094Z,0.00
2017-12-02T03:26:05.497Z,0.00
2017-12-02T03:26:40.520Z,0.00
2017-12-02T03:27:15.727Z,0.00
2017-12-02T03:27:50.815Z,0.00
2017-12-02T03:28:25.840Z,0.40
2017-12-02T03:29:01.411Z,0.00
2017-12-02T03:29:36.908Z,0.00
2017-12-02T03:30:12.265Z,0.00
2017-12-02T03:30:47.644Z,0.00
2017-12-02T03:31:23.458Z,0.00
2017-12-02T03:31:58.756Z,0.00
2017-12-02T03:32:33.961Z,0.00
2017-12-02T03:33:09.262Z,0.00
2017-12-02T03:33:44.789Z,0.00
2017-12-02T03:34:19.994Z,0.00
2017-12-02T03:34:55.405Z,0.00
2017-12-02T03:35:30.929Z,0.00
2017-12-02T03:36:06.116Z,0.00
2017-12-02T03:36:41.316Z,0.00
2017-12-02T03:37:16.720Z,0.00
2017-12-02T03:37:52.120Z,0.00
2017-12-02T03:38:27.627Z,0.00
2017-12-02T03:39:02.905Z,0.00
2017-12-02T03:39:38.121Z,0.00
2017-12-02T03:40:13.663Z,0.00
2017-12-02T03:40:49.056Z,0.00
2017-12-02T03:41:24.473Z,0.00
2017-12-02T03:41:59.755Z,0.00
2017-12-02T03:42:35.061Z,0.00
2017-12-02T03:43:10.248Z,0.00
2017-12-02T03:43:45.664Z,0.00
2017-12-02T03:44:21.175Z,0.00
2017-12-02T03:44:56.670Z,0.00
2017-12-02T03:45:32.203Z,0.00
2017-12-02T03:46:07.593Z,0.00
2017-12-02T03:46:42.697Z,0.00
2017-12-02T03:47:18.106Z,0.00
2017-12-02T03:47:53.298Z,0.00
2017-12-02T03:48:28.801Z,0.00
2017-12-02T03:49:04.191Z,0.00
2017-12-02T03:49:39.530Z,0.00
2017-12-02T03:50:15.056Z,0.00
2017-12-02T03:50:50.647Z,0.00
2017-12-02T03:51:25.971Z,0.00
2017-12-02T03:52:01.167Z,0.00
2017-12-02T03:52:36.374Z,0.08
2017-12-02T03:53:11.997Z,0.48
2017-12-02T03:53:47.285Z,2.64
2017-12-02T03:54:22.691Z,1.04
2017-12-02T03:54:57.878Z,0.24
2017-12-02T03:55:33.123Z,0.00
2017-12-02T03:56:08.708Z,0.00
2017-12-02T03:56:44.113Z,0.00
2017-12-02T03:57:19.717Z,0.00
2017-12-02T03:57:55.098Z,0.00
2017-12-02T03:58:30.614Z,0.00
2017-12-02T03:59:05.895Z,0.00
2017-12-02T03:59:41.208Z,1.36
2017-12-02T04:00:16.650Z,1.76
2017-12-02T04:00:51.932Z,0.32
2017-12-02T04:01:27.245Z,0.48
2017-12-02T04:02:02.433Z,0.00
2017-12-02T04:02:37.660Z,0.00
2017-12-02T04:03:13.266Z,0.00
2017-12-02T04:03:48.549Z,0.00
2017-12-02T04:04:23.756Z,0.00
2017-12-02T04:04:59.362Z,0.00
2017-12-02T04:05:35.104Z,0.00
2017-12-02T04:06:10.397Z,0.00
2017-12-02T04:06:45.702Z,0.00
2017-12-02T04:07:21.225Z,0.00
2017-12-02T04:07:56.708Z,0.72
2017-12-02T04:08:32.016Z,0.96
2017-12-02T04:09:07.492Z,0.08
2017-12-02T04:09:42.716Z,0.08
2017-12-02T04:10:17.886Z,1.36
2017-12-02T04:10:53.375Z,1.20
2017-12-02T04:11:29.092Z,1.68
2017-12-02T04:12:04.482Z,0.64
2017-12-02T04:12:39.682Z,0.40
2017-12-02T04:13:14.893Z,1.44
2017-12-02T04:13:50.265Z,0.96
2017-12-02T04:14:25.379Z,1.36
2017-12-02T04:15:00.901Z,0.24
2017-12-02T04:15:36.520Z,0.40
2017-12-02T04:16:11.829Z,0.96
2017-12-02T04:16:47.006Z,0.00
2017-12-02T04:17:22.219Z,0.08
2017-12-02T04:17:57.814Z,0.40
2017-12-02T04:18:33.021Z,0.48
2017-12-02T04:19:08.306Z,0.00
2017-12-02T04:19:43.408Z,0.16
2017-12-02T04:20:18.421Z,0.00
2017-12-02T04:20:53.825Z,0.24
2017-12-02T04:21:29.137Z,0.48
2017-12-02T04:22:04.713Z,0.72
2017-12-02T04:22:39.924Z,0.88
2017-12-02T04:23:15.441Z,0.00
2017-12-02T04:23:50.626Z,0.00
2017-12-02T04:24:25.750Z,0.00
2017-12-02T04:25:00.941Z,0.00
2017-12-02T04:25:36.684Z,0.00
2017-12-02T04:26:11.904Z,0.00
2017-12-02T04:26:47.202Z,0.00
2017-12-02T04:27:22.515Z,0.00
2017-12-02T04:27:57.804Z,0.00
2017-12-02T04:28:33.320Z,0.00
2017-12-02T04:29:08.702Z,0.00
2017-12-02T04:29:44.125Z,0.00
2017-12-02T04:30:19.429Z,1.20
2017-12-02T04:30:54.661Z,0.88
2017-12-02T04:31:29.872Z,0.72
2017-12-02T04:32:05.155Z,0.00
2017-12-02T04:32:40.474Z,0.00
2017-12-02T04:33:15.996Z,0.00
2017-12-02T04:33:51.684Z,0.00
2017-12-02T04:34:27.008Z,0.00
2017-12-02T04:35:02.189Z,0.00
2017-12-02T04:35:37.537Z,0.00
2017-12-02T04:36:12.759Z,0.00
2017-12-02T04:36:48.044Z,0.00
2017-12-02T04:37:23.064Z,0.00
2017-12-02T04:37:58.260Z,0.00
2017-12-02T04:38:33.778Z,0.08
2017-12-02T04:39:08.871Z,0.16
2017-12-02T04:39:44.380Z,0.64
2017-12-02T04:40:19.691Z,2.24
2017-12-02T04:40:54.900Z,2.32
2017-12-02T04:41:30.415Z,2.48
2017-12-02T04:42:05.707Z,1.12
2017-12-02T04:42:40.804Z,0.40
2017-12-02T04:43:16.314Z,2.32
2017-12-02T04:43:51.495Z,1.36
2017-12-02T04:44:26.806Z,0.96
2017-12-02T04:45:02.303Z,0.64
2017-12-02T04:45:37.511Z,0.32
2017-12-02T04:46:12.953Z,0.00
2017-12-02T04:46:48.432Z,0.00
2017-12-02T04:47:23.539Z,0.00
2017-12-02T04:47:58.633Z,0.00
2017-12-02T04:48:33.736Z,0.00
2017-12-02T04:49:09.024Z,0.00
2017-12-02T04:49:44.125Z,0.00
2017-12-02T04:50:19.546Z,0.00
2017-12-02T04:50:54.863Z,0.00
2017-12-02T04:51:30.371Z,0.00
2017-12-02T04:52:05.459Z,0.00
2017-12-02T04:52:40.866Z,0.00
2017-12-02T04:53:16.275Z,0.00
2017-12-02T04:53:51.758Z,0.00
2017-12-02T04:54:27.071Z,0.00
2017-12-02T04:55:02.248Z,0.00
2017-12-02T04:55:37.460Z,0.00
2017-12-02T04:56:12.617Z,0.00
2017-12-02T04:56:47.801Z,0.00
2017-12-02T04:57:23.108Z,0.32
2017-12-02T04:57:58.293Z,0.00
2017-12-02T04:58:33.609Z,0.00
2017-12-02T04:59:08.692Z,0.00
2017-12-02T04:59:44.110Z,0.00
2017-12-02T05:00:19.451Z,0.00
2017-12-02T05:00:54.959Z,0.00
2017-12-02T05:01:30.265Z,0.00
2017-12-02T05:02:05.560Z,0.00
2017-12-02T05:02:40.861Z,0.00
2017-12-02T05:03:16.372Z,0.00
2017-12-02T05:03:51.554Z,0.48
2017-12-02T05:04:26.861Z,0.40
2017-12-02T05:05:02.057Z,0.08
2017-12-02T05:05:37.368Z,0.00
2017-12-02T05:06:12.903Z,0.00
2017-12-02T05:06:48.297Z,0.00
2017-12-02T05:07:23.912Z,0.00
2017-12-02T05:07:59.195Z,0.00
2017-12-02T05:08:34.649Z,0.64
2017-12-02T05:09:10.093Z,0.00
2017-12-02T05:09:45.499Z,0.00
2017-12-02T05:10:20.820Z,0.00
2017-12-02T05:10:56.016Z,0.00
2017-12-02T05:11:31.650Z,0.40
2017-12-02T05:12:07.036Z,1.68
2017-12-02T05:12:42.652Z,0.72
2017-12-02T05:13:17.855Z,1.20
2017-12-02T05:13:53.051Z,1.52
2017-12-02T05:14:28.270Z,0.80
2017-12-02T05:15:03.876Z,0.16
2017-12-02T05:15:39.072Z,0.00
2017-12-02T05:16:14.504Z,0.40
2017-12-02T05:16:49.808Z,0.16
2017-12-02T05:17:25.013Z,0.16
2017-12-02T05:18:00.192Z,0.00
2017-12-02T05:18:35.602Z,0.00
2017-12-02T05:19:11.121Z,0.00
2017-12-02T05:19:46.301Z,0.00
2017-12-02T05:20:21.620Z,0.00
2017-12-02T05:20:56.797Z,0.00
2017-12-02T05:21:32.144Z,0.00
2017-12-02T05:22:07.424Z,0.00
2017-12-02T05:22:42.931Z,0.32
2017-12-02T05:23:18.539Z,0.72
2017-12-02T05:23:54.329Z,0.72
2017-12-02T05:24:29.541Z,0.08
2017-12-02T05:25:04.722Z,0.00
2017-12-02T05:25:40.239Z,0.00
2017-12-02T05:26:15.567Z,0.00
2017-12-02T05:26:50.647Z,0.00
2017-12-02T05:27:26.065Z,0.00
2017-12-02T05:28:01.553Z,0.00
2017-12-02T05:28:37.061Z,0.32
2017-12-02T05:29:12.281Z,0.00
2017-12-02T05:29:47.760Z,0.24
2017-12-02T05:30:23.479Z,0.24
2017-12-02T05:30:59.158Z,1.52
2017-12-02T05:31:34.401Z,0.56
2017-12-02T05:32:09.572Z,0.72
2017-12-02T05:32:45.187Z,1.76
2017-12-02T05:33:20.512Z,1.28
2017-12-02T05:33:55.891Z,0.72
2017-12-02T05:34:31.102Z,0.96
2017-12-02T05:35:06.385Z,0.80
2017-12-02T05:35:41.697Z,0.32
2017-12-02T05:36:16.728Z,0.32
2017-12-02T05:36:52.061Z,0.16
2017-12-02T05:37:27.665Z,0.24
2017-12-02T05:38:02.950Z,0.88
2017-12-02T05:38:38.177Z,1.04
2017-12-02T05:39:13.505Z,0.08
2017-12-02T05:39:48.936Z,0.48
2017-12-02T05:40:24.650Z,0.32
2017-12-02T05:41:00.134Z,0.56
2017-12-02T05:41:35.506Z,0.64
2017-12-02T05:42:10.947Z,0.40
2017-12-02T05:42:46.029Z,0.96
2017-12-02T05:43:21.349Z,0.08
2017-12-02T05:43:56.850Z,0.00
2017-12-02T05:44:32.266Z,0.00
2017-12-02T05:45:07.877Z,0.00
2017-12-02T05:45:43.195Z,0.00
2017-12-02T05:46:18.637Z,0.88
2017-12-02T05:46:54.258Z,0.24
2017-12-02T05:47:29.564Z,0.00
2017-12-02T05:48:05.052Z,0.80
2017-12-02T05:48:40.262Z,1.20
2017-12-02T05:49:15.691Z,1.68
2017-12-02T05:49:51.075Z,1.12
2017-12-02T05:50:26.279Z,1.44
2017-12-02T05:51:01.564Z,2.40
2017-12-02T05:51:36.691Z,1.84
2017-12-02T05:52:12.198Z,2.24
2017-12-02T05:52:47.584Z,3.60
2017-12-02T05:53:22.893Z,3.76
2017-12-02T05:53:57.981Z,0.80
2017-12-02T05:54:33.289Z,0.80
2017-12-02T05:55:08.587Z,1.84
2017-12-02T05:55:44.494Z,0.88
2017-12-02T05:56:19.908Z,0.00
2017-12-02T05:56:55.117Z,0.80
2017-12-02T05:57:30.620Z,1.28
2017-12-02T05:58:05.808Z,1.12
2017-12-02T05:58:41.322Z,0.80
2017-12-02T05:59:16.930Z,0.32
2017-12-02T05:59:52.315Z,0.00
2017-12-02T06:00:27.520Z,0.24
2017-12-02T06:01:02.814Z,0.24
2017-12-02T06:01:38.053Z,0.00
2017-12-02T06:02:13.271Z,1.52
2017-12-02T06:02:48.466Z,0.16
2017-12-02T06:03:23.679Z,0.24
2017-12-02T06:03:58.958Z,0.00
2017-12-02T06:04:34.467Z,0.16
2017-12-02T06:05:09.846Z,0.00
2017-12-02T06:05:45.156Z,0.00
2017-12-02T06:06:20.475Z,0.16
2017-12-02T06:06:56.001Z,0.00
2017-12-02T06:07:31.111Z,0.00
2017-12-02T06:08:06.394Z,0.00
2017-12-02T06:08:41.619Z,0.00
2017-12-02T06:09:16.727Z,0.00
2017-12-02T06:09:52.122Z,0.00
2017-12-02T06:10:27.626Z,0.00
2017-12-02T06:11:02.720Z,0.00
2017-12-02T06:11:38.034Z,0.00
2017-12-02T06:12:13.366Z,0.00
2017-12-02T06:12:48.561Z,0.00
2017-12-02T06:13:23.571Z,0.00
2017-12-02T06:13:58.859Z,0.00
2017-12-02T06:14:34.487Z,0.56
2017-12-02T06:15:09.894Z,0.40
2017-12-02T06:15:45.515Z,0.08
2017-12-02T06:16:21.029Z,0.00
2017-12-02T06:16:56.148Z,0.00
2017-12-02T06:17:31.567Z,0.00
2017-12-02T06:18:06.857Z,0.00
2017-12-02T06:18:42.064Z,0.00
2017-12-02T06:19:17.464Z,0.00
2017-12-02T06:19:52.575Z,0.00
2017-12-02T06:20:27.781Z,0.00
2017-12-02T06:21:03.067Z,0.00
2017-12-02T06:21:38.763Z,0.00
2017-12-02T06:22:13.803Z,0.00
2017-12-02T06:22:48.996Z,0.00
2017-12-02T06:23:24.314Z,0.56
2017-12-02T06:23:59.897Z,0.80
2017-12-02T06:24:35.110Z,0.96
2017-12-02T06:25:10.325Z,0.32
2017-12-02T06:25:45.609Z,0.00
2017-12-02T06:26:20.924Z,0.00
2017-12-02T06:26:56.433Z,0.00
2017-12-02T06:27:32.056Z,0.00
2017-12-02T06:28:07.132Z,0.08
2017-12-02T06:28:42.531Z,0.00
2017-12-02T06:29:17.941Z,0.08
2017-12-02T06:29:53.523Z,0.00
2017-12-02T06:30:29.028Z,0.00
2017-12-02T06:31:04.213Z,0.80
2017-12-02T06:31:39.836Z,0.64
2017-12-02T06:32:15.166Z,0.00
2017-12-02T06:32:50.658Z,0.40
2017-12-02T06:33:25.767Z,0.16
2017-12-02T06:34:01.061Z,0.16
2017-12-02T06:34:37.082Z,0.80
2017-12-02T06:35:12.394Z,0.24
2017-12-02T06:35:47.985Z,0.00
2017-12-02T06:36:23.191Z,0.00
2017-12-02T06:36:58.505Z,0.32
2017-12-02T06:37:33.713Z,0.88
2017-12-02T06:38:08.990Z,0.80
2017-12-02T06:38:44.000Z,0.08
2017-12-02T06:39:19.316Z,0.00
2017-12-02T06:39:54.405Z,0.00
2017-12-02T06:40:29.936Z,0.00
2017-12-02T06:41:05.103Z,0.00
2017-12-02T06:41:40.527Z,0.48
2017-12-02T06:42:15.751Z,0.24
2017-12-02T06:42:51.130Z,0.00
2017-12-02T06:43:26.635Z,0.00
2017-12-02T06:44:01.919Z,0.08
2017-12-02T06:44:37.038Z,0.00
2017-12-02T06:45:12.273Z,0.00
2017-12-02T06:45:47.860Z,0.00
2017-12-02T06:46:22.985Z,0.00
2017-12-02T06:46:58.369Z,0.00
2017-12-02T06:47:33.942Z,0.00
2017-12-02T06:48:09.331Z,0.16
2017-12-02T06:48:44.657Z,0.40
2017-12-02T06:49:20.361Z,0.80
2017-12-02T06:49:55.744Z,1.84
2017-12-02T06:50:30.861Z,2.48
2017-12-02T06:51:06.271Z,2.24
2017-12-02T06:51:41.384Z,1.92
2017-12-02T06:52:16.616Z,0.96
2017-12-02T06:52:51.912Z,0.00
2017-12-02T06:53:27.219Z,0.00
2017-12-02T06:54:02.521Z,0.00
2017-12-02T06:54:37.929Z,0.00
2017-12-02T06:55:13.540Z,0.00
2017-12-02T06:55:48.731Z,0.00
2017-12-02T06:56:23.934Z,0.00
2017-12-02T06:56:59.258Z,0.00
2017-12-02T06:57:34.693Z,0.00
2017-12-02T06:58:09.890Z,0.00
2017-12-02T06:58:45.283Z,0.64
2017-12-02T06:59:20.696Z,1.44
2017-12-02T06:59:55.788Z,0.00
2017-12-02T07:00:31.196Z,0.00
2017-12-02T07:01:06.586Z,0.00
2017-12-02T07:01:41.989Z,0.00
2017-12-02T07:02:17.338Z,0.00
2017-12-02T07:02:52.929Z,0.00
2017-12-02T07:03:28.380Z,1.84
2017-12-02T07:04:04.896Z,1.20
2017-12-02T07:04:40.804Z,2.48
2017-12-02T07:05:16.229Z,2.56
2017-12-02T07:05:51.610Z,0.88
2017-12-02T07:06:27.220Z,1.04
2017-12-02T07:07:02.301Z,1.20
2017-12-02T07:07:37.450Z,2.24
2017-12-02T07:08:12.775Z,0.72
2017-12-02T07:08:47.880Z,0.56
2017-12-02T07:09:23.620Z,0.00
2017-12-02T07:09:59.084Z,0.16
2017-12-02T07:10:34.395Z,0.40
2017-12-02T07:11:09.787Z,2.08
2017-12-02T07:11:45.106Z,1.44
2017-12-02T07:12:20.616Z,0.08
2017-12-02T07:12:55.921Z,0.16
2017-12-02T07:13:31.126Z,0.00
2017-12-02T07:14:06.538Z,0.00
2017-12-02T07:14:41.945Z,0.00
2017-12-02T07:15:17.447Z,0.00
2017-12-02T07:15:52.640Z,0.00
2017-12-02T07:16:27.842Z,0.08
2017-12-02T07:17:03.031Z,0.00
2017-12-02T07:17:38.374Z,0.00
2017-12-02T07:18:14.670Z,0.16
2017-12-02T07:18:49.957Z,0.24
2017-12-02T07:19:25.059Z,0.88
2017-12-02T07:20:00.357Z,0.72
2017-12-02T07:20:35.951Z,1.12
2017-12-02T07:21:11.467Z,0.88
2017-12-02T07:21:46.959Z,0.08
2017-12-02T07:22:21.970Z,0.00
2017-12-02T07:22:57.603Z,0.16
2017-12-02T07:23:33.006Z,0.24
2017-12-02T07:24:08.293Z,1.68
2017-12-02T07:24:43.614Z,1.20
2017-12-02T07:25:18.723Z,0.80
2017-12-02T07:25:53.911Z,0.48
2017-12-02T07:26:29.287Z,0.00
2017-12-02T07:27:04.880Z,0.48
2017-12-02T07:27:40.216Z,2.56
2017-12-02T07:28:15.638Z,0.32
2017-12-02T07:28:50.811Z,0.72
2017-12-02T07:29:25.815Z,0.32
2017-12-02T07:30:01.708Z,0.16
2017-12-02T07:30:37.338Z,0.00
2017-12-02T07:31:12.646Z,0.00
2017-12-02T07:31:48.027Z,0.00
2017-12-02T07:32:23.344Z,0.08
2017-12-02T07:32:58.645Z,0.16
2017-12-02T07:33:34.164Z,0.00
2017-12-02T07:34:09.674Z,0.00
2017-12-02T07:34:44.895Z,0.00
2017-12-02T07:35:20.303Z,0.16
2017-12-02T07:35:55.579Z,0.48
2017-12-02T07:36:30.990Z,0.40
2017-12-02T07:37:06.585Z,0.32
2017-12-02T07:37:41.921Z,0.08
2017-12-02T07:38:17.452Z,1.52
2017-12-02T07:38:52.727Z,0.56
2017-12-02T07:39:28.239Z,0.96
2017-12-02T07:40:03.634Z,2.56
2017-12-02T07:40:39.044Z,0.56
2017-12-02T07:41:14.454Z,1.36
2017-12-02T07:41:49.547Z,1.12
2017-12-02T07:42:24.860Z,0.96
2017-12-02T07:43:00.186Z,0.96
2017-12-02T07:43:35.400Z,0.56
2017-12-02T07:44:10.609Z,0.08
2017-12-02T07:44:45.985Z,0.00
2017-12-02T07:45:21.488Z,0.00
2017-12-02T07:45:57.068Z,1.68
2017-12-02T07:46:32.380Z,0.00
2017-12-02T07:47:07.862Z,0.00
2017-12-02T07:47:43.172Z,0.16
2017-12-02T07:48:18.409Z,0.16
2017-12-02T07:48:53.715Z,0.00
2017-12-02T07:49:29.375Z,2.00
2017-12-02T07:50:04.559Z,0.08
2017-12-02T07:50:39.976Z,0.80